createdAt,value
2017-11-18T00:02:05.358Z,6.20
2017-11-18T00:04:32.982Z,6.20
2017-11-18T00:07:01.318Z,6.20
2017-11-18T00:09:28.898Z,6.20
2017-11-18T00:11:56.672Z,6.20
2017-11-18T00:14:24.251Z,6.30
2017-11-18T00:16:51.835Z,6.20
2017-11-18T00:19:19.630Z,6.20
2017-11-18T00:21:47.211Z,6.20
2017-11-18T00:24:15.566Z,6.20
2017-11-18T00:26:43.307Z,6.20
2017-11-18T00:29:10.886Z,6.20
2017-11-18T00:31:38.476Z,6.20
2017-11-18T00:34:06.108Z,6.20
2017-11-18T00:36:33.686Z,6.20
2017-11-18T00:39:01.266Z,6.20
2017-11-18T00:41:29.106Z,6.20
2017-11-18T00:43:56.684Z,6.20
2017-11-18T00:46:25.030Z,6.20
2017-11-18T00:48:52.658Z,6.20
2017-11-18T00:51:21.002Z,6.30
2017-11-18T00:53:48.586Z,6.30
2017-11-18T00:56:16.384Z,6.30
2017-11-18T00:58:44.734Z,6.30
2017-11-18T01:01:12.310Z,6.30
2017-11-18T01:03:39.945Z,6.30
2017-11-18T01:06:07.531Z,6.30
2017-11-18T01:08:35.112Z,6.30
2017-11-18T01:11:02.736Z,6.20
2017-11-18T01:13:31.078Z,6.30
2017-11-18T01:15:58.655Z,6.20
2017-11-18T01:18:26.290Z,6.30
2017-11-18T01:20:53.872Z,6.30
2017-11-18T01:23:21.452Z,6.30
2017-11-18T01:25:49.086Z,6.20
2017-11-18T01:28:17.433Z,6.20
2017-11-18T01:30:45.007Z,6.20
2017-11-18T01:33:12.815Z,6.20
2017-11-18T01:35:40.403Z,6.20
2017-11-18T01:38:08.743Z,6.10
2017-11-18T01:40:36.547Z,6.10
2017-11-18T01:43:04.123Z,6.10
2017-11-18T01:45:31.710Z,6.10
2017-11-18T01:48:00.291Z,6.10
2017-11-18T01:50:27.866Z,6.00
2017-11-18T01:52:55.450Z,6.00
2017-11-18T01:55:23.944Z,5.80
2017-11-18T01:57:52.303Z,5.70
2017-11-18T02:00:19.890Z,5.70
2017-11-18T02:02:47.519Z,5.70
2017-11-18T02:05:15.098Z,5.60
2017-11-18T02:07:42.693Z,5.50
2017-11-18T02:10:10.314Z,5.50
2017-11-18T02:12:37.892Z,5.60
2017-11-18T02:15:05.495Z,5.60
2017-11-18T02:17:33.131Z,5.60
2017-11-18T02:20:00.728Z,5.70
2017-11-18T02:22:28.307Z,5.70
2017-11-18T02:24:55.959Z,5.70
2017-11-18T02:27:23.558Z,5.70
2017-11-18T02:29:51.147Z,5.70
2017-11-18T02:32:18.768Z,5.80
2017-11-18T02:34:46.354Z,5.80
2017-11-18T02:37:13.956Z,5.90
2017-11-18T02:39:41.595Z,5.90
2017-11-18T02:42:09.195Z,5.90
2017-11-18T02:44:36.783Z,5.90
2017-11-18T02:47:04.411Z,5.90
2017-11-18T02:49:32.014Z,5.90
2017-11-18T02:51:59.613Z,5.90
2017-11-18T02:54:28.019Z,5.90
2017-11-18T02:56:56.376Z,6.00
2017-11-18T02:59:23.983Z,5.90
2017-11-18T03:01:51.731Z,6.00
2017-11-18T03:04:19.307Z,5.90
2017-11-18T03:06:46.893Z,5.90
2017-11-18T03:09:15.477Z,5.90
2017-11-18T03:11:43.059Z,5.90
2017-11-18T03:14:11.411Z,6.00
2017-11-18T03:16:39.143Z,6.00
2017-11-18T03:19:06.723Z,6.00
2017-11-18T03:21:34.306Z,6.00
2017-11-18T03:24:02.131Z,6.00
2017-11-18T03:26:29.714Z,6.00
2017-11-18T03:28:58.063Z,6.00
2017-11-18T03:31:25.698Z,6.00
2017-11-18T03:33:53.275Z,6.10
2017-11-18T03:36:20.854Z,6.10
2017-11-18T03:38:48.491Z,6.10
2017-11-18T03:41:16.839Z,6.10
2017-11-18T03:43:44.408Z,6.10
2017-11-18T03:46:12.043Z,6.10
2017-11-18T03:48:39.624Z,6.10
2017-11-18T03:51:07.211Z,6.20
2017-11-18T03:53:34.833Z,6.10
2017-11-18T03:56:02.410Z,6.10
2017-11-18T03:58:32.121Z,6.10
2017-11-18T04:01:01.282Z,6.00
2017-11-18T04:03:28.858Z,6.00
2017-11-18T04:05:56.438Z,5.90
2017-11-18T04:08:24.157Z,5.90
2017-11-18T04:10:52.498Z,5.80
2017-11-18T04:13:20.082Z,5.70
2017-11-18T04:15:47.818Z,5.70
2017-11-18T04:18:15.402Z,5.70
2017-11-18T04:20:42.984Z,5.60
2017-11-18T04:23:10.803Z,5.60
2017-11-18T04:25:38.382Z,5.60
2017-11-18T04:28:06.986Z,5.60
2017-11-18T04:30:35.620Z,5.50
2017-11-18T04:33:03.198Z,5.50
2017-11-18T04:35:30.779Z,5.60
2017-11-18T04:37:58.415Z,5.50
2017-11-18T04:40:25.994Z,5.50
2017-11-18T04:42:53.575Z,5.60
2017-11-18T04:45:21.211Z,5.60
2017-11-18T04:47:49.558Z,5.70
2017-11-18T04:50:17.143Z,5.70
2017-11-18T04:52:44.770Z,5.80
2017-11-18T04:55:12.366Z,5.80
2017-11-18T04:57:39.951Z,5.80
2017-11-18T05:00:07.754Z,5.80
2017-11-18T05:02:35.336Z,5.90
2017-11-18T05:05:06.030Z,6.00
2017-11-18T05:07:34.055Z,5.90
2017-11-18T05:10:02.434Z,5.90
2017-11-18T05:12:30.179Z,5.90
2017-11-18T05:14:57.803Z,5.90
2017-11-18T05:17:26.142Z,5.90
2017-11-18T05:19:53.722Z,6.00
2017-11-18T05:22:21.359Z,6.00
2017-11-18T05:24:48.939Z,6.00
2017-11-18T05:27:18.431Z,6.00
2017-11-18T05:29:48.380Z,6.00
2017-11-18T05:32:18.014Z,6.00
2017-11-18T05:34:46.462Z,6.00
2017-11-18T05:37:14.810Z,6.00
2017-11-18T05:39:42.387Z,6.00
2017-11-18T05:42:10.186Z,6.00
2017-11-18T05:44:37.768Z,6.00
2017-11-18T05:47:06.115Z,5.90
2017-11-18T05:49:33.743Z,5.90
2017-11-18T05:52:02.090Z,5.90
2017-11-18T05:54:29.667Z,5.80
2017-11-18T05:56:57.303Z,5.80
2017-11-18T05:59:24.883Z,5.80
2017-11-18T06:01:52.471Z,5.70
2017-11-18T06:04:20.279Z,5.70
2017-11-18T06:06:48.627Z,5.60
2017-11-18T06:09:16.218Z,5.60
2017-11-18T06:11:43.862Z,5.70
2017-11-18T06:14:12.664Z,5.60
2017-11-18T06:16:40.237Z,5.60
2017-11-18T06:19:07.870Z,5.60
2017-11-18T06:21:36.217Z,5.40
2017-11-18T06:24:03.797Z,5.40
2017-11-18T06:26:32.194Z,5.30
2017-11-18T06:28:59.771Z,5.30
2017-11-18T06:31:27.359Z,5.30
2017-11-18T06:33:55.125Z,5.30
2017-11-18T06:36:22.726Z,5.30
2017-11-18T06:38:50.311Z,5.40
2017-11-18T06:41:18.104Z,5.30
2017-11-18T06:43:46.607Z,5.30
2017-11-18T06:46:14.594Z,5.30
2017-11-18T06:48:44.509Z,5.30
2017-11-18T06:51:13.306Z,5.30
2017-11-18T06:53:40.887Z,5.30
2017-11-18T06:56:08.701Z,5.30
2017-11-18T06:58:36.283Z,5.30
2017-11-18T07:01:04.625Z,5.30
2017-11-18T07:03:32.258Z,5.30
2017-11-18T07:06:00.606Z,5.30
2017-11-18T07:08:28.188Z,5.30
2017-11-18T07:10:56.653Z,5.20
2017-11-18T07:13:24.240Z,5.20
2017-11-18T07:15:52.629Z,5.20
2017-11-18T07:18:21.011Z,5.20
2017-11-18T07:20:51.904Z,5.30
2017-11-18T07:23:19.773Z,5.40
2017-11-18T07:25:47.353Z,5.40
2017-11-18T07:28:15.703Z,5.80
2017-11-18T07:30:43.656Z,5.80
2017-11-18T07:33:11.236Z,6.00
2017-11-18T07:35:38.818Z,6.00
2017-11-18T07:38:06.465Z,6.00
2017-11-18T07:40:34.529Z,6.10
2017-11-18T07:43:02.862Z,6.10
2017-11-18T07:45:30.515Z,6.10
2017-11-18T07:47:58.098Z,6.10
2017-11-18T07:50:25.687Z,6.20
2017-11-18T07:52:53.375Z,6.20
2017-11-18T07:55:21.763Z,6.30
2017-11-18T07:57:49.341Z,6.30
2017-11-18T08:00:16.963Z,6.30
2017-11-18T08:02:44.547Z,6.40
2017-11-18T08:05:12.122Z,6.50
2017-11-18T08:07:40.043Z,6.50
2017-11-18T08:10:07.627Z,6.50
2017-11-18T08:12:35.990Z,6.60
2017-11-18T08:15:03.659Z,6.60
2017-11-18T08:17:31.239Z,6.70
2017-11-18T08:19:58.819Z,6.70
2017-11-18T08:22:26.554Z,6.80
2017-11-18T08:24:54.369Z,6.90
2017-11-18T08:27:21.950Z,7.00
2017-11-18T08:29:49.571Z,7.10
2017-11-18T08:32:17.156Z,7.00
2017-11-18T08:34:44.734Z,7.00
2017-11-18T08:37:12.357Z,7.00
2017-11-18T08:39:40.713Z,7.00
2017-11-18T08:42:08.307Z,7.00
2017-11-18T08:44:36.696Z,7.00
2017-11-18T08:47:05.054Z,7.00
2017-11-18T08:49:32.669Z,6.90
2017-11-18T08:52:00.540Z,6.90
2017-11-18T08:54:28.921Z,7.30
2017-11-18T08:56:57.337Z,7.50
2017-11-18T08:59:25.070Z,7.50
2017-11-18T09:01:52.828Z,7.60
2017-11-18T09:04:20.413Z,7.80
2017-11-18T09:06:48.054Z,7.70
2017-11-18T09:09:16.948Z,7.60
2017-11-18T09:11:44.907Z,7.50
2017-11-18T09:14:13.304Z,7.30
2017-11-18T09:16:40.888Z,7.20
2017-11-18T09:19:08.468Z,7.20
2017-11-18T09:21:38.558Z,7.10
2017-11-18T09:24:06.932Z,7.10
2017-11-18T09:26:34.528Z,7.10
2017-11-18T09:29:02.973Z,7.10
2017-11-18T09:31:30.550Z,7.10
2017-11-18T09:33:58.204Z,7.20
2017-11-18T09:36:26.081Z,7.10
2017-11-18T09:38:53.670Z,7.10
2017-11-18T09:41:21.253Z,7.10
2017-11-18T09:43:48.878Z,7.10
2017-11-18T09:46:16.680Z,7.00
2017-11-18T09:48:44.346Z,7.00
2017-11-18T09:51:11.979Z,6.90
2017-11-18T09:53:40.381Z,6.90
2017-11-18T09:56:07.988Z,6.90
2017-11-18T09:58:37.396Z,7.10
2017-11-18T10:01:04.979Z,7.00
2017-11-18T10:03:32.564Z,7.10
2017-11-18T10:06:00.740Z,7.20
2017-11-18T10:08:28.314Z,7.30
2017-11-18T10:10:55.901Z,7.40
2017-11-18T10:13:23.684Z,7.50
2017-11-18T10:15:51.323Z,7.60
2017-11-18T10:18:18.899Z,7.50
2017-11-18T10:20:46.519Z,7.50
2017-11-18T10:23:14.883Z,7.40
2017-11-18T10:25:42.459Z,7.40
2017-11-18T10:28:10.082Z,7.40
2017-11-18T10:30:37.674Z,7.40
2017-11-18T10:33:05.256Z,7.50
2017-11-18T10:35:32.878Z,7.40
2017-11-18T10:38:01.227Z,7.30
2017-11-18T10:40:28.810Z,7.30
2017-11-18T10:42:57.479Z,7.30
2017-11-18T10:45:29.416Z,7.20
2017-11-18T10:48:02.329Z,7.10
2017-11-18T10:50:33.977Z,7.10
2017-11-18T10:53:04.542Z,7.00
2017-11-18T10:55:32.114Z,6.90
2017-11-18T10:57:59.719Z,6.90
2017-11-18T11:00:27.352Z,6.80
2017-11-18T11:02:54.941Z,6.80
2017-11-18T11:05:22.535Z,6.80
2017-11-18T11:07:50.338Z,6.80
2017-11-18T11:10:18.687Z,6.70
2017-11-18T11:12:46.275Z,6.70
2017-11-18T11:15:14.074Z,6.60
2017-11-18T11:17:41.650Z,6.60
2017-11-18T11:20:09.233Z,6.60
2017-11-18T11:22:37.816Z,6.30
2017-11-18T11:25:05.398Z,6.30
2017-11-18T11:27:33.748Z,6.00
2017-11-18T11:30:01.382Z,5.90
2017-11-18T11:32:29.432Z,5.80
2017-11-18T11:34:57.612Z,5.70
2017-11-18T11:37:25.892Z,5.60
2017-11-18T11:39:54.077Z,5.60
2017-11-18T11:42:22.164Z,5.50
2017-11-18T11:44:50.242Z,5.50
2017-11-18T11:47:18.048Z,5.40
2017-11-18T11:49:47.492Z,5.30
2017-11-18T11:52:15.558Z,5.30
2017-11-18T11:54:43.799Z,5.30
2017-11-18T11:57:11.765Z,5.60
2017-11-18T11:59:40.065Z,5.90
2017-11-18T12:02:08.054Z,6.10
2017-11-18T12:04:36.020Z,6.20
2017-11-18T12:07:03.646Z,6.20
2017-11-18T12:09:31.245Z,6.40
2017-11-18T12:11:58.823Z,6.30
2017-11-18T12:14:26.642Z,6.30
2017-11-18T12:16:54.229Z,6.20
2017-11-18T12:19:22.570Z,6.30
2017-11-18T12:21:50.312Z,6.20
2017-11-18T12:24:17.895Z,6.30
2017-11-18T12:26:45.491Z,6.40
2017-11-18T12:29:14.873Z,6.60
2017-11-18T12:31:42.542Z,6.70
2017-11-18T12:34:10.126Z,6.80
2017-11-18T12:36:38.014Z,6.80
2017-11-18T12:39:06.623Z,6.70
2017-11-18T12:41:34.203Z,6.70
2017-11-18T12:44:01.866Z,6.50
2017-11-18T12:46:29.464Z,6.40
2017-11-18T12:48:57.181Z,6.20
2017-11-18T12:51:26.422Z,6.10
2017-11-18T12:53:54.101Z,6.00
2017-11-18T12:56:21.708Z,5.90
2017-11-18T12:58:49.694Z,5.80
2017-11-18T13:01:18.160Z,5.70
2017-11-18T13:03:45.743Z,5.70
2017-11-18T13:06:13.488Z,5.70
2017-11-18T13:08:41.063Z,5.70
2017-11-18T13:11:08.690Z,5.70
2017-11-18T13:13:36.456Z,5.60
2017-11-18T13:16:04.853Z,5.50
2017-11-18T13:18:32.560Z,5.40
2017-11-18T13:21:00.212Z,5.40
2017-11-18T13:23:27.793Z,5.50
2017-11-18T13:25:55.825Z,5.50
2017-11-18T13:28:23.979Z,5.50
2017-11-18T13:30:51.996Z,5.50
2017-11-18T13:33:20.079Z,5.60
2017-11-18T13:35:47.733Z,5.60
2017-11-18T13:38:15.847Z,5.60
2017-11-18T13:40:44.957Z,5.60
2017-11-18T13:43:14.038Z,5.60
2017-11-18T13:45:42.449Z,5.50
2017-11-18T13:48:10.372Z,5.50
2017-11-18T13:50:38.711Z,5.40
2017-11-18T13:53:06.994Z,5.40
2017-11-18T13:55:34.573Z,5.40
2017-11-18T13:58:04.384Z,5.40
2017-11-18T14:00:34.269Z,5.40
2017-11-18T14:03:02.296Z,5.40
2017-11-18T14:05:32.126Z,5.50
2017-11-18T14:08:00.104Z,5.50
2017-11-18T14:10:28.191Z,5.60
2017-11-18T14:12:56.223Z,5.70
2017-11-18T14:15:24.342Z,5.70
2017-11-18T14:17:52.445Z,5.70
2017-11-18T14:20:20.689Z,5.60
2017-11-18T14:22:49.224Z,5.60
2017-11-18T14:25:17.405Z,5.60
2017-11-18T14:27:45.436Z,5.50
2017-11-18T14:30:13.979Z,5.60
2017-11-18T14:32:42.153Z,5.60
2017-11-18T14:35:10.734Z,5.60
2017-11-18T14:37:41.114Z,5.60
2017-11-18T14:40:10.192Z,5.70
2017-11-18T14:42:38.910Z,5.60
2017-11-18T14:45:06.913Z,5.70
2017-11-18T14:47:35.979Z,5.60
2017-11-18T14:50:04.168Z,5.60
2017-11-18T14:52:33.858Z,5.60
2017-11-18T14:55:02.213Z,5.60
2017-11-18T14:57:31.303Z,5.50
2017-11-18T15:00:01.124Z,5.40
2017-11-18T15:02:29.609Z,5.40
2017-11-18T15:04:57.192Z,5.40
2017-11-18T15:07:24.787Z,5.30
2017-11-18T15:09:52.480Z,5.20
2017-11-18T15:12:20.071Z,5.10
2017-11-18T15:14:52.152Z,5.10
2017-11-18T15:20:27.816Z,5.10
2017-11-18T15:23:14.901Z,5.00
2017-11-18T15:25:48.252Z,5.00
2017-11-18T15:28:21.631Z,5.10
2017-11-18T15:33:56.655Z,5.20
2017-11-18T15:36:24.493Z,5.20
2017-11-18T15:38:52.824Z,5.20
2017-11-18T15:41:20.415Z,5.10
2017-11-18T15:47:12.295Z,4.90
2017-11-18T15:49:42.472Z,4.90
2017-11-18T15:55:28.955Z,4.60
2017-11-18T15:57:58.319Z,4.60
2017-11-18T16:00:27.403Z,4.50
2017-11-18T16:03:07.698Z,4.50
2017-11-18T16:05:35.275Z,4.50
2017-11-18T16:08:04.301Z,4.40
2017-11-18T16:10:32.806Z,4.40
2017-11-18T16:13:00.378Z,4.30
2017-11-18T16:15:27.950Z,4.30
2017-11-18T16:17:55.596Z,4.40
2017-11-18T16:20:23.178Z,4.50
2017-11-18T16:22:51.541Z,4.80
2017-11-18T16:25:19.220Z,4.80
2017-11-18T16:27:46.802Z,4.90
2017-11-18T16:30:14.384Z,4.90
2017-11-18T16:32:43.660Z,4.80
2017-11-18T16:35:11.245Z,4.80
2017-11-18T16:37:38.834Z,4.70
2017-11-18T16:40:07.355Z,4.60
2017-11-18T16:42:34.942Z,4.60
2017-11-18T16:45:02.523Z,4.60
2017-11-18T16:47:30.267Z,4.60
2017-11-18T16:49:57.852Z,4.60
2017-11-18T16:52:25.434Z,4.60
2017-11-18T16:54:53.259Z,4.60
2017-11-18T16:57:21.611Z,4.50
2017-11-18T16:59:49.200Z,4.50
2017-11-18T17:02:16.835Z,4.50
2017-11-18T17:04:44.619Z,4.50
2017-11-18T17:07:12.202Z,4.50
2017-11-18T17:09:39.838Z,4.50
2017-11-18T17:12:07.422Z,4.50
2017-11-18T17:14:35.112Z,4.50
2017-11-18T17:17:02.748Z,4.60
2017-11-18T17:19:31.089Z,4.60
2017-11-18T17:21:58.670Z,4.60
2017-11-18T17:24:26.476Z,4.60
2017-11-18T17:26:54.403Z,4.60
2017-11-18T17:29:21.992Z,4.50
2017-11-18T17:31:49.853Z,4.50
2017-11-18T17:34:17.447Z,4.50
2017-11-18T17:36:45.043Z,4.50
2017-11-18T17:39:13.979Z,4.50
2017-11-18T17:41:41.581Z,4.40
2017-11-18T17:44:12.321Z,4.40
2017-11-18T17:46:40.142Z,4.30
2017-11-18T17:49:11.916Z,4.30
2017-11-18T17:51:40.403Z,4.30
2017-11-18T17:54:07.995Z,4.30
2017-11-18T17:56:36.350Z,4.30
2017-11-18T17:59:03.989Z,4.30
2017-11-18T18:01:31.583Z,4.20
2017-11-18T18:03:59.189Z,4.30
2017-11-18T18:06:26.922Z,4.30
2017-11-18T18:08:54.506Z,4.30
2017-11-18T18:11:22.094Z,4.30
2017-11-18T18:13:49.731Z,4.20
2017-11-18T18:16:17.609Z,4.20
2017-11-18T18:18:45.190Z,4.20
2017-11-18T18:21:12.821Z,4.20
2017-11-18T18:23:41.211Z,4.20
2017-11-18T18:26:25.390Z,4.20
2017-11-18T18:28:53.061Z,4.10
2017-11-18T18:31:20.750Z,4.20
2017-11-18T18:33:48.348Z,4.30
2017-11-18T18:36:15.944Z,4.40
2017-11-18T18:38:43.489Z,4.40
2017-11-18T18:41:11.120Z,4.40
2017-11-18T18:43:38.688Z,4.50
2017-11-18T18:46:06.252Z,4.50
2017-11-18T18:48:34.621Z,4.40
2017-11-18T18:51:02.172Z,4.40
2017-11-18T18:53:29.716Z,4.40
2017-11-18T18:55:57.296Z,4.40
2017-11-18T18:58:24.849Z,4.40
2017-11-18T19:00:52.408Z,4.40
2017-11-18T19:03:20.588Z,4.40
2017-11-18T19:05:48.172Z,4.50
2017-11-18T19:08:15.733Z,4.60
2017-11-18T19:10:43.659Z,4.60
2017-11-18T19:13:11.368Z,4.60
2017-11-18T19:15:39.681Z,4.60
2017-11-18T19:18:07.416Z,4.60
2017-11-18T19:20:34.974Z,4.70
2017-11-18T19:23:02.516Z,4.70
2017-11-18T19:25:30.192Z,4.70
2017-11-18T19:27:57.756Z,4.70
2017-11-18T19:30:25.311Z,4.70
2017-11-18T19:32:52.905Z,4.70
2017-11-18T19:35:20.476Z,4.70
2017-11-18T19:37:48.021Z,4.70
2017-11-18T19:40:15.701Z,4.70
2017-11-18T19:42:43.260Z,4.70
2017-11-18T19:45:11.595Z,4.80
2017-11-18T19:47:39.377Z,4.80
2017-11-18T19:50:06.920Z,4.80
2017-11-18T19:52:34.506Z,4.80
2017-11-18T19:55:02.301Z,4.90
2017-11-18T19:57:29.845Z,4.90
2017-11-18T19:59:57.402Z,4.90
2017-11-18T20:02:25.230Z,4.90
2017-11-18T20:04:52.777Z,4.90
2017-11-18T20:07:20.435Z,4.90
2017-11-18T20:09:48.501Z,4.90
2017-11-18T20:12:16.050Z,4.90
2017-11-18T20:14:44.367Z,4.80
2017-11-18T20:17:12.064Z,4.80
2017-11-18T20:19:39.619Z,4.80
2017-11-18T20:22:07.198Z,4.80
2017-11-18T20:24:35.583Z,4.80
2017-11-18T20:27:03.132Z,4.70
2017-11-18T20:29:31.436Z,4.60
2017-11-18T20:31:59.653Z,4.60
2017-11-18T20:34:27.197Z,4.70
2017-11-18T20:36:54.739Z,4.90
2017-11-18T20:39:23.294Z,4.80
2017-11-18T20:41:50.836Z,4.80
2017-11-18T20:44:18.403Z,4.80
2017-11-18T20:46:46.277Z,4.70
2017-11-18T20:49:13.829Z,4.70
2017-11-18T20:51:42.144Z,4.70
2017-11-18T20:54:09.735Z,4.60
2017-11-18T20:56:37.283Z,4.70
2017-11-18T20:59:04.837Z,4.70
2017-11-18T21:01:32.525Z,4.60
2017-11-18T21:04:00.073Z,4.50
2017-11-18T21:06:28.396Z,4.50
2017-11-18T21:08:55.995Z,4.50
2017-11-18T21:11:23.549Z,4.60
2017-11-18T21:13:51.106Z,4.60
2017-11-18T21:16:18.715Z,4.70
2017-11-18T21:18:47.028Z,4.70
2017-11-18T21:21:15.338Z,4.70
2017-11-18T21:23:43.025Z,4.70
2017-11-18T21:26:10.664Z,4.70
2017-11-18T21:28:38.979Z,4.70
2017-11-18T21:31:06.569Z,4.70
2017-11-18T21:33:34.153Z,4.70
2017-11-18T21:36:01.684Z,4.70
2017-11-18T21:38:30.209Z,4.60
2017-11-18T21:40:57.772Z,4.60
2017-11-18T21:43:25.327Z,4.60
2017-11-18T21:45:52.940Z,4.70
2017-11-18T21:48:20.484Z,4.70
2017-11-18T21:50:48.034Z,4.70
2017-11-18T21:53:15.631Z,4.70
2017-11-18T21:55:43.181Z,4.70
2017-11-18T21:58:10.725Z,4.70
2017-11-18T22:00:39.093Z,4.70
2017-11-18T22:03:06.673Z,4.70
2017-11-18T22:05:34.251Z,4.70
2017-11-18T22:08:02.000Z,4.70
2017-11-18T22:10:29.555Z,4.70
2017-11-18T22:12:57.886Z,4.70
2017-11-18T22:15:26.253Z,4.70
2017-11-18T22:17:53.801Z,4.70
2017-11-18T22:20:21.360Z,4.70
2017-11-18T22:22:48.974Z,4.70
2017-11-18T22:25:16.529Z,4.70
2017-11-18T22:27:44.082Z,4.60
2017-11-18T22:30:11.677Z,4.60
2017-11-18T22:32:39.223Z,4.50
2017-11-18T22:35:06.777Z,4.50
2017-11-18T22:37:34.366Z,4.50
2017-11-18T22:40:01.920Z,4.50
2017-11-18T22:42:30.266Z,4.60
2017-11-18T22:44:57.863Z,4.60
2017-11-18T22:47:26.175Z,4.60
2017-11-18T22:49:53.738Z,4.50
2017-11-18T22:52:22.462Z,4.60
2017-11-18T22:54:50.019Z,4.60
2017-11-18T22:57:17.583Z,4.60
2017-11-18T22:59:45.297Z,4.60
2017-11-18T23:02:12.856Z,4.60
2017-11-18T23:04:40.405Z,4.60
2017-11-18T23:07:08.008Z,4.60
2017-11-18T23:09:36.183Z,4.60
2017-11-18T23:12:03.758Z,4.60
2017-11-18T23:14:31.444Z,4.60
2017-11-18T23:16:59.001Z,4.60
2017-11-18T23:19:26.558Z,4.60
2017-11-18T23:21:54.261Z,4.60
2017-11-18T23:24:21.819Z,4.60
2017-11-18T23:26:49.373Z,4.60
2017-11-18T23:29:16.980Z,4.60
2017-11-18T23:31:44.536Z,4.60
2017-11-18T23:34:12.096Z,4.60
2017-11-18T23:36:39.697Z,4.60
2017-11-18T23:39:07.249Z,4.60
2017-11-18T23:41:34.796Z,4.60
2017-11-18T23:44:02.405Z,4.50
2017-11-18T23:46:29.957Z,4.40
2017-11-18T23:48:57.516Z,4.40
2017-11-18T23:51:25.108Z,4.30
2017-11-18T23:53:52.667Z,4.30
2017-11-18T23:56:20.218Z,4.20
2017-11-18T23:58:47.815Z,4.20
